Time,TemperatureF,DewpointF,PressureIn,WindDirection,WindDirectionDegrees,WindSpeedMPH,WindSpeedGustMPH,Humidity,HourlyPrecipIn,Conditions,Clouds,dailyrainin,SoftwareType,DateUTC
2013-07-25 00:22:00,83.0,44.0,-100.00,NNE,29,3.0,9.0,25,-99.99,,,-99.99,,2013-07-25 00:22:00,
2013-07-25 00:52:00,84.0,44.0,-100.00,SE,142,5.0,9.0,25,-99.99,,,-99.99,,2013-07-25 00:52:00,
2013-07-25 01:12:00,84.0,45.0,-100.00,ESE,117,4.0,9.0,26,-99.99,,,-99.99,,2013-07-25 01:12:00,
2013-07-25 01:32:00,82.0,47.0,-100.00,SSE,156,6.0,9.0,29,-99.99,,,-99.99,,2013-07-25 01:32:00,
2013-07-25 01:53:00,81.0,47.0,-100.00,SE,134,6.0,10.0,30,-99.99,,,-99.99,,2013-07-25 01:53:00,
2013-07-25 02:02:00,80.0,48.0,-100.00,SE,130,8.0,12.0,32,-99.99,,,-99.99,,2013-07-25 02:02:00,
2013-07-25 02:12:00,80.0,48.0,-100.00,SE,134,7.0,10.0,32,-99.99,,,-99.99,,2013-07-25 02:12:00,
2013-07-25 02:22:00,79.0,48.0,-100.00,SE,136,9.0,11.0,33,-99.99,,,-99.99,,2013-07-25 02:22:00,
2013-07-25 02:33:00,78.0,48.0,-100.00,SE,133,8.0,12.0,33,-99.99,,,-99.99,,2013-07-25 02:33:00,
2013-07-25 02:43:00,77.0,48.0,-100.00,SE,146,6.0,10.0,35,-99.99,,,-99.99,,2013-07-25 02:43:00,
2013-07-25 02:52:00,77.0,47.0,-100.00,ESE,119,7.0,8.0,35,-99.99,,,-99.99,,2013-07-25 02:52:00,
2013-07-25 03:02:00,76.0,48.0,-100.00,SE,129,6.0,9.0,37,-99.99,,,-99.99,,2013-07-25 03:02:00,
2013-07-25 03:23:00,72.0,49.0,-100.00,South,178,5.0,5.0,44,-99.99,,,-99.99,,2013-07-25 03:23:00,
2013-07-25 03:44:00,71.0,48.0,-100.00,SSW,198,1.0,2.0,43,-99.99,,,-99.99,,2013-07-25 03:44:00,
2013-07-25 03:52:00,71.0,48.0,-100.00,SSW,198,1.0,2.0,43,-99.99,,,-99.99,,2013-07-25 03:52:00,
2013-07-25 04:12:00,70.0,48.0,-100.00,WSW,254,1.0,2.0,46,-99.99,,,-99.99,,2013-07-25 04:12:00,
2013-07-25 04:22:00,69.0,48.0,-100.00,SW,220,1.0,4.0,47,-99.99,,,-99.99,,2013-07-25 04:22:00,
2013-07-25 04:32:00,68.0,48.0,-100.00,SSW,194,2.0,3.0,48,-99.99,,,-99.99,,2013-07-25 04:32:00,
2013-07-25 04:43:00,66.0,47.0,-100.00,NE,50,2.0,3.0,49,-99.99,,,-99.99,,2013-07-25 04:43:00,
2013-07-25 04:53:00,66.0,47.0,-100.00,NE,50,2.0,3.0,49,-99.99,,,-99.99,,2013-07-25 04:53:00,
2013-07-25 05:02:00,68.0,48.0,-100.00,WSW,249,3.0,3.0,48,-99.99,,,-99.99,,2013-07-25 05:02:00,
2013-07-25 05:12:00,68.0,48.0,-100.00,WSW,249,3.0,3.0,48,-99.99,,,-99.99,,2013-07-25 05:12:00,
2013-07-25 05:21:00,64.0,48.0,-100.00,SE,143,2.0,3.0,55,-99.99,,,-99.99,,2013-07-25 05:21:00,
2013-07-25 05:32:00,65.0,49.0,-100.00,SE,138,3.0,4.0,55,-99.99,,,-99.99,,2013-07-25 05:32:00,
2013-07-25 05:43:00,63.0,48.0,-100.00,SE,136,3.0,4.0,57,-99.99,,,-99.99,,2013-07-25 05:43:00,
2013-07-25 05:52:00,64.0,48.0,-100.00,ESE,117,1.0,3.0,56,-99.99,,,-99.99,,2013-07-25 05:52:00,
2013-07-25 07:22:00,58.0,46.0,-100.00,SSE,161,5.0,5.0,64,-99.99,,,-99.99,,2013-07-25 07:22:00,
2013-07-25 11:12:00,55.0,46.0,-100.00,NNE,13,4.0,4.0,71,-99.99,,,-99.99,,2013-07-25 11:12:00,
2013-07-25 11:22:00,55.0,46.0,-100.00,SSE,154,2.0,4.0,71,-99.99,,,-99.99,,2013-07-25 11:22:00,
2013-07-25 11:32:00,54.0,46.0,-100.00,SSE,159,5.0,5.0,74,-99.99,,,-99.99,,2013-07-25 11:32:00,
2013-07-25 12:44:00,54.0,46.0,-100.00,SSE,147,2.0,3.0,75,-99.99,,,-99.99,,2013-07-25 12:44:00,
2013-07-25 12:53:00,54.0,46.0,-100.00,SE,142,3.0,3.0,75,-99.99,,,-99.99,,2013-07-25 12:53:00,
2013-07-25 13:02:00,54.0,46.0,-100.00,SE,142,3.0,3.0,75,-99.99,,,-99.99,,2013-07-25 13:02:00,
2013-07-25 13:12:00,53.0,46.0,-100.00,SSE,164,5.0,6.0,76,-99.99,,,-99.99,,2013-07-25 13:12:00,
2013-07-25 13:42:00,52.0,46.0,-100.00,SSE,154,5.0,5.0,80,-99.99,,,-99.99,,2013-07-25 13:42:00,
2013-07-25 14:22:00,57.0,48.0,-100.00,SSE,153,6.0,6.0,71,-99.99,,,-99.99,,2013-07-25 14:22:00,
2013-07-25 14:43:00,61.0,48.0,-100.00,ESE,112,3.0,4.0,61,-99.99,,,-99.99,,2013-07-25 14:43:00,
2013-07-25 14:53:00,63.0,48.0,-100.00,East,89,1.0,2.0,57,-99.99,,,-99.99,,2013-07-25 14:53:00,
2013-07-25 15:02:00,65.0,49.0,-100.00,ENE,61,0.0,2.0,57,-99.99,,,-99.99,,2013-07-25 15:02:00,
2013-07-25 15:10:00,67.0,52.0,-100.00,West,278,3.0,6.0,57,-99.99,,,-99.99,,2013-07-25 15:10:00,
2013-07-25 15:12:00,66.0,50.0,-100.00,NNE,12,1.0,2.0,57,-99.99,,,-99.99,,2013-07-25 15:12:00,
2013-07-25 15:22:00,66.0,50.0,-100.00,NNE,12,1.0,2.0,57,-99.99,,,-99.99,,2013-07-25 15:22:00,
2013-07-25 15:32:00,66.0,50.0,-100.00,NNE,12,1.0,2.0,57,-99.99,,,-99.99,,2013-07-25 15:32:00,
2013-07-25 15:43:00,67.0,52.0,-100.00,West,278,3.0,6.0,57,-99.99,,,-99.99,,2013-07-25 15:43:00,
2013-07-25 15:52:00,67.0,52.0,-100.00,West,278,3.0,6.0,57,-99.99,,,-99.99,,2013-07-25 15:52:00,
2013-07-25 16:02:00,67.0,52.0,-100.00,West,278,3.0,6.0,57,-99.99,,,-99.99,,2013-07-25 16:02:00,
2013-07-25 16:22:00,71.0,50.0,-100.00,WNW,285,5.0,6.0,46,-99.99,,,-99.99,,2013-07-25 16:22:00,
2013-07-25 16:45:00,73.0,49.0,-100.00,NW,320,3.0,7.0,43,-99.99,,,-99.99,,2013-07-25 16:45:00,
2013-07-25 16:53:00,75.0,47.0,-100.00,North,357,3.0,4.0,36,-99.99,,,-99.99,,2013-07-25 16:53:00,
2013-07-25 17:02:00,77.0,47.0,-100.00,NNE,16,1.0,2.0,34,-99.99,,,-99.99,,2013-07-25 17:02:00,
2013-07-25 17:12:00,77.0,47.0,-100.00,NNE,16,1.0,2.0,34,-99.99,,,-99.99,,2013-07-25 17:12:00,
2013-07-25 17:22:00,76.0,47.0,-100.00,WNW,300,7.0,10.0,36,-99.99,,,-99.99,,2013-07-25 17:22:00,
2013-07-25 17:32:00,76.0,47.0,-100.00,WNW,300,7.0,10.0,36,-99.99,,,-99.99,,2013-07-25 17:32:00,
2013-07-25 17:43:00,77.0,47.0,-100.00,NW,307,6.0,8.0,34,-99.99,,,-99.99,,2013-07-25 17:43:00,
2013-07-25 17:53:00,77.0,45.0,-100.00,WNW,285,8.0,9.0,32,-99.99,,,-99.99,,2013-07-25 17:53:00,
2013-07-25 18:02:00,78.0,46.0,-100.00,WNW,294,7.0,8.0,32,-99.99,,,-99.99,,2013-07-25 18:02:00,
2013-07-25 18:22:00,83.0,46.0,-100.00,WNW,292,10.0,13.0,27,-99.99,,,-99.99,,2013-07-25 18:22:00,
2013-07-25 18:33:00,83.0,46.0,-100.00,WNW,292,10.0,13.0,27,-99.99,,,-99.99,,2013-07-25 18:33:00,
2013-07-25 18:43:00,83.0,46.0,-100.00,NW,306,8.0,11.0,27,-99.99,,,-99.99,,2013-07-25 18:43:00,
2013-07-25 18:52:00,83.0,46.0,-100.00,North,352,6.0,8.0,27,-99.99,,,-99.99,,2013-07-25 18:52:00,
2013-07-25 19:02:00,83.0,48.0,-100.00,NE,37,6.0,8.0,28,-99.99,,,-99.99,,2013-07-25 19:02:00,
2013-07-25 19:12:00,84.0,43.0,-100.00,North,5,5.0,7.0,23,-99.99,,,-99.99,,2013-07-25 19:12:00,
2013-07-25 19:22:00,84.0,43.0,-100.00,North,5,5.0,7.0,23,-99.99,,,-99.99,,2013-07-25 19:22:00,
2013-07-25 19:42:00,88.0,40.0,-100.00,NNW,334,4.0,7.0,19,-99.99,,,-99.99,,2013-07-25 19:42:00,
2013-07-25 19:52:00,87.0,34.0,-100.00,NNW,346,6.0,7.0,15,-99.99,,,-99.99,,2013-07-25 19:52:00,
2013-07-25 20:22:00,88.0,36.0,-100.00,North,5,10.0,15.0,16,-99.99,,,-99.99,,2013-07-25 20:22:00,
2013-07-25 20:32:00,87.0,33.0,-100.00,North,354,6.0,11.0,14,-99.99,,,-99.99,,2013-07-25 20:32:00,
2013-07-25 20:43:00,88.0,36.0,-100.00,NW,322,9.0,15.0,15,-99.99,,,-99.99,,2013-07-25 20:43:00,
2013-07-25 20:53:00,87.0,42.0,-100.00,NNW,337,7.0,16.0,20,-99.99,,,-99.99,,2013-07-25 20:53:00,
2013-07-25 21:12:00,88.0,37.0,-100.00,North,354,6.0,9.0,16,-99.99,,,-99.99,,2013-07-25 21:12:00,
2013-07-25 21:22:00,88.0,38.0,-100.00,NNW,346,9.0,13.0,17,-99.99,,,-99.99,,2013-07-25 21:22:00,
2013-07-25 21:32:00,88.0,38.0,-100.00,NNW,346,9.0,13.0,17,-99.99,,,-99.99,,2013-07-25 21:32:00,
2013-07-25 21:44:00,88.0,35.0,-100.00,North,356,12.0,13.0,15,-99.99,,,-99.99,,2013-07-25 21:44:00,
2013-07-25 21:52:00,89.0,34.0,-100.00,South,188,5.0,13.0,14,-99.99,,,-99.99,,2013-07-25 21:52:00,
2013-07-25 22:12:00,90.0,34.0,-100.00,WNW,284,8.0,13.0,13,-99.99,,,-99.99,,2013-07-25 22:12:00,
2013-07-25 22:22:00,89.0,35.0,-100.00,NNW,339,13.0,16.0,14,-99.99,,,-99.99,,2013-07-25 22:22:00,
2013-07-25 22:32:00,89.0,35.0,-100.00,NNW,339,13.0,16.0,14,-99.99,,,-99.99,,2013-07-25 22:32:00,
2013-07-25 22:43:00,91.0,34.0,-100.00,NW,317,5.0,12.0,13,-99.99,,,-99.99,,2013-07-25 22:43:00,
2013-07-25 22:52:00,89.0,35.0,-100.00,NNW,348,8.0,12.0,14,-99.99,,,-99.99,,2013-07-25 22:52:00,
2013-07-25 23:12:00,91.0,34.0,-100.00,WNW,295,7.0,14.0,13,-99.99,,,-99.99,,2013-07-25 23:12:00,
2013-07-25 23:32:00,91.0,34.0,-100.00,SW,235,4.0,15.0,13,-99.99,,,-99.99,,2013-07-25 23:32:00,
2013-07-25 23:43:00,90.0,34.0,-100.00,NW,320,9.0,14.0,13,-99.99,,,-99.99,,2013-07-25 23:43:00,
2013-07-25 23:52:00,90.0,34.0,-100.00,NW,320,9.0,14.0,13,-99.99,,,-99.99,,2013-07-25 23:52:00,